Time;durP1;ratioP1;P1;durP2;ratioP2;P2;SDS_P1;SDS_P2;PMS_P1;PMS_P2;Temp;Humidity;BMP_temperature;BMP_pressure;BME280_temperature;BME280_humidity;BME280_pressure;Samples;Min_cycle;Max_cycle;Signal;HPM_P1;HPM_P2
2022/07/02 00:01:07;;;;;;;3.33;2.53;;;19.70;84.40;;;20.23;52.06;99318.22;4985820;28;123338;-89
2022/07/02 00:03:36;;;;;;;3.77;2.40;;;18.50;83.40;;;20.19;52.03;99315.34;4984525;28;123681;-89
2022/07/02 00:06:05;;;;;;;2.50;2.30;;;19.70;84.70;;;20.18;52.51;99318.53;4982441;28;114333;-88
2022/07/02 00:08:33;;;;;;;3.53;2.50;;;19.70;84.80;;;20.14;52.49;99315.63;4983574;28;113045;-89
2022/07/02 00:11:03;;;;;;;3.10;2.30;;;19.60;84.90;;;20.13;52.22;99313.22;4978857;28;123892;-89
2022/07/02 00:13:29;;;;;;;2.90;2.60;;;19.60;85.00;;;20.13;52.37;99313.22;4977644;28;122923;-89
2022/07/02 00:15:56;;;;;;;2.80;2.20;;;19.60;85.20;;;20.12;52.64;99312.38;4980505;28;115626;-86
2022/07/02 00:18:23;;;;;;;3.83;2.53;;;19.60;85.30;;;20.11;52.71;99310.75;4970420;28;115017;-89
2022/07/02 00:20:49;;;;;;;3.27;2.37;;;19.60;85.40;;;20.10;52.62;99314.75;4984286;28;123407;-91
2022/07/02 00:23:17;;;;;;;2.60;2.30;;;19.50;85.50;;;20.10;52.73;99317.56;4973647;28;122944;-92
2022/07/02 00:25:57;;;;;;;5.40;2.30;;;19.50;85.60;;;20.06;52.76;99319.44;4981185;28;114445;-91
2022/07/02 00:28:26;;;;;;;2.83;2.27;;;19.50;85.70;;;20.00;52.80;99312.50;4977511;28;113628;-90
2022/07/02 00:30:52;;;;;;;1.70;1.60;;;19.50;85.80;;;19.99;52.96;99322.09;4972491;28;123832;-91
2022/07/02 00:33:20;;;;;;;2.67;2.43;;;19.40;85.80;;;19.98;53.03;99326.06;4976545;28;123796;-90
2022/07/02 00:35:46;;;;;;;2.33;2.13;;;19.40;85.90;;;19.97;53.05;99322.44;4984477;28;113405;-90
2022/07/02 00:38:13;;;;;;;2.40;1.93;;;19.40;86.00;;;19.97;52.92;99316.84;4978536;28;115640;-87
2022/07/02 00:40:40;;;;;;;2.63;1.93;;;19.40;86.10;;;19.94;52.88;99316.75;4971791;28;124330;-87
2022/07/02 00:43:07;;;;;;;2.60;1.97;;;19.40;86.20;;;19.93;52.99;99327.13;4967922;28;124103;-88
2022/07/02 00:45:35;;;;;;;2.17;1.97;;;19.40;86.90;;;19.92;53.13;99316.28;4973217;28;114377;-87
2022/07/02 00:48:02;;;;;;;1.90;1.77;;;19.40;86.30;;;19.90;53.26;99321.44;4975145;28;114098;-89
2022/07/02 00:50:29;;;;;;;3.20;2.03;;;19.30;86.40;;;19.88;53.21;99320.97;4975337;28;124253;-89
2022/07/02 00:52:56;;;;;;;2.17;1.83;;;19.30;86.40;;;19.85;53.26;99320.56;4990035;28;123204;-88
2022/07/02 00:55:23;;;;;;;1.50;1.40;;;19.30;86.50;;;19.83;53.30;99328.50;4984455;28;114287;-89
2022/07/02 00:57:50;;;;;;;3.40;1.73;;;19.30;86.70;;;19.82;53.29;99326.88;4972250;28;112094;-89
2022/07/02 01:00:18;;;;;;;2.30;1.93;;;19.30;86.80;;;19.80;53.50;99323.63;4975352;28;123720;-89
2022/07/02 01:02:46;;;;;;;2.50;1.83;;;19.30;86.90;;;19.80;53.76;99325.59;4977183;28;125348;-88
2022/07/02 01:05:19;;;;;;;2.57;2.03;;;19.30;87.00;;;19.78;53.55;99323.16;4987232;28;115290;-89
2022/07/02 01:10:16;;;;;;;2.00;1.80;;;19.20;87.00;;;19.77;53.66;99317.91;4976813;28;115830;-88
2022/07/02 01:10:52;;;;;;;2.40;1.70;;;19.20;87.10;;;19.74;53.53;99319.44;4977472;28;123649;-90
2022/07/02 01:13:20;;;;;;;3.93;2.23;;;19.20;87.80;;;19.72;53.53;99306.97;4980683;28;123646;-89
2022/07/02 01:15:46;;;;;;;2.10;1.57;;;19.20;87.30;;;19.72;53.78;99312.56;4969037;28;113584;-89
2022/07/02 01:18:17;;;;;;;2.60;1.83;;;19.20;87.40;;;19.71;53.66;99310.94;4975837;28;115076;-89
2022/07/02 01:20:45;;;;;;;2.70;2.00;;;19.20;87.40;;;19.70;53.77;99306.53;4984979;28;123980;-90
2022/07/02 01:23:12;;;;;;;2.03;1.83;;;19.20;87.50;;;19.69;53.97;99311.31;4975412;28;124222;-90
2022/07/02 01:25:39;;;;;;;2.00;1.57;;;19.10;87.50;;;19.71;54.05;99313.75;4982250;28;114336;-87
2022/07/02 01:28:05;;;;;;;3.30;2.20;;;19.10;87.60;;;19.71;54.00;99313.75;4974452;28;114580;-90
2022/07/02 01:30:32;;;;;;;3.30;1.90;;;19.10;88.40;;;19.70;53.98;99312.13;4976072;28;123967;-89
2022/07/02 01:32:59;;;;;;;1.97;1.70;;;19.10;87.80;;;19.68;54.10;99306.06;4974655;28;124434;-90
2022/07/02 01:35:25;;;;;;;1.83;1.40;;;19.10;87.80;;;19.65;54.17;99296.34;4980502;28;114075;-89
2022/07/02 01:37:53;;;;;;;2.30;1.77;;;19.10;87.90;;;19.64;54.08;99301.16;4973537;28;114052;-88
2022/07/02 01:40:19;;;;;;;1.70;1.60;;;19.10;87.90;;;19.62;53.95;99311.09;4980876;28;124117;-90
2022/07/02 01:42:46;;;;;;;1.63;1.50;;;19.10;88.00;;;19.59;54.09;99300.63;4980827;28;122561;-90
2022/07/02 01:45:12;;;;;;;2.77;2.00;;;19.00;88.00;;;19.58;54.11;99304.56;4979685;28;113750;-90
2022/07/02 01:47:39;;;;;;;3.60;1.77;;;19.00;88.00;;;19.57;54.23;99297.34;4977095;28;114336;-89
2022/07/02 01:50:06;;;;;;;1.60;1.50;;;19.00;88.10;;;19.55;54.42;99296.88;4983111;28;124231;-90
2022/07/02 01:52:33;;;;;;;2.07;1.50;;;19.00;88.30;;;19.54;54.20;99293.28;4974313;28;124079;-89
2022/07/02 01:55:00;;;;;;;2.30;1.73;;;19.00;88.30;;;19.53;54.52;99302.03;4974789;28;115767;-90
2022/07/02 01:57:30;;;;;;;3.47;1.97;;;19.00;88.30;;;19.51;54.50;99308.03;4983595;28;114220;-88
2022/07/02 01:59:57;;;;;;;1.63;1.50;;;18.90;88.30;;;19.49;54.41;99306.75;4974708;28;123873;-90
2022/07/02 02:02:23;;;;;;;1.50;1.40;;;18.90;88.40;;;19.47;54.65;99311.88;4982609;28;123052;-89
2022/07/02 02:04:50;;;;;;;2.30;1.70;;;18.90;88.50;;;19.45;54.38;99317.88;4976577;28;114007;-88
2022/07/02 02:07:17;;;;;;;1.90;1.60;;;18.90;88.60;;;19.43;54.41;99312.63;4970308;28;113756;-89
2022/07/02 02:09:43;;;;;;;2.47;1.70;;;18.90;88.70;;;19.38;54.47;99310.06;4977409;28;124136;-88
2022/07/02 02:12:11;;;;;;;2.70;1.93;;;18.80;88.60;;;19.28;54.73;99309.78;4972756;28;124188;-89
2022/07/02 02:14:38;;;;;;;1.77;1.63;;;18.70;88.60;;;19.23;54.78;99318.44;4980456;28;114253;-90
2022/07/02 02:17:05;;;;;;;2.53;1.80;;;18.70;88.70;;;19.20;54.78;99317.97;4985427;28;114193;-88
2022/07/02 02:19:31;;;;;;;1.60;1.40;;;18.70;88.90;;;19.18;54.98;99308.31;4978408;28;124559;-89
2022/07/02 02:21:58;;;;;;;2.30;1.93;;;18.60;88.80;;;19.19;54.95;99312.75;4988378;28;123031;-89
2022/07/02 02:24:25;;;;;;;1.83;1.40;;;18.60;89.00;;;19.18;54.70;99319.50;4973877;28;114117;-89
2022/07/02 02:26:51;;;;;;;1.47;1.37;;;18.60;89.10;;;19.18;55.04;99313.91;4977727;28;113889;-87
2022/07/02 02:29:18;;;;;;;1.90;1.70;;;18.60;89.80;;;19.18;54.86;99316.69;4976743;28;124074;-89
2022/07/02 02:31:44;;;;;;;1.83;1.40;;;18.60;89.20;;;19.15;55.15;99306.22;4970325;28;124036;-88
2022/07/02 02:34:11;;;;;;;1.60;1.30;;;18.60;89.20;;;19.13;55.06;99305.78;4989078;28;113033;-90
2022/07/02 02:36:37;;;;;;;1.50;1.40;;;18.60;89.30;;;19.11;55.18;99302.53;4975296;28;113669;-89
2022/07/02 02:39:04;;;;;;;1.60;1.30;;;18.60;89.30;;;19.09;55.10;99299.25;4981787;28;124329;-89
2022/07/02 02:41:30;;;;;;;1.63;1.53;;;18.50;89.30;;;19.07;55.09;99305.19;4981487;28;123965;-89
2022/07/02 02:43:57;;;;;;;1.83;1.40;;;18.50;89.30;;;19.07;55.09;99307.19;4983381;28;114984;-89
2022/07/02 02:46:23;;;;;;;1.80;1.70;;;18.50;89.40;;;19.04;55.13;99303.13;4976548;28;115064;-90
2022/07/02 02:48:50;;;;;;;4.13;1.37;;;18.50;89.50;;;19.03;55.24;99306.28;4980550;28;123812;-88
2022/07/02 02:51:17;;;;;;;1.90;1.50;;;18.50;89.60;;;19.03;55.72;99309.09;4982858;28;123836;-90
2022/07/02 02:53:44;;;;;;;2.27;1.37;;;18.50;89.60;;;19.01;55.52;99309.44;4981565;28;113440;-88
2022/07/02 02:56:11;;;;;;;1.97;1.57;;;18.40;89.70;;;19.01;55.43;99311.44;4980465;28;114013;-89
2022/07/02 02:58:38;;;;;;;1.60;1.50;;;18.40;89.60;;;18.98;55.49;99301.75;4974947;28;124236;-89
2022/07/02 03:01:05;;;;;;;1.60;1.50;;;18.40;89.70;;;18.99;55.39;99303.38;4993459;28;123523;-90
2022/07/02 03:03:32;;;;;;;1.43;1.30;;;18.40;89.90;;;18.98;55.68;99305.34;4978609;28;114789;-89
2022/07/02 03:05:59;;;;;;;1.80;1.37;;;18.40;90.00;;;18.98;55.62;99299.75;4984188;28;114131;-89
2022/07/02 03:08:25;;;;;;;2.43;1.93;;;18.40;90.00;;;18.98;55.65;99308.16;4970909;28;124403;-90
2022/07/02 03:10:52;;;;;;;1.87;1.50;;;18.40;90.00;;;18.98;55.59;99301.75;4980757;28;123723;-88
2022/07/02 03:13:18;;;;;;;1.87;1.67;;;18.40;90.00;;;18.95;55.65;99310.88;4981996;28;113680;-89
2022/07/02 03:15:45;;;;;;;1.63;1.53;;;18.40;90.10;;;18.94;55.53;99304.47;4968870;28;114067;-89
2022/07/02 03:18:11;;;;;;;1.80;1.40;;;18.40;90.10;;;18.93;55.69;99314.00;4983321;28;123408;-88
2022/07/02 03:20:38;;;;;;;1.33;1.23;;;18.40;90.10;;;18.92;55.92;99305.97;4968760;28;123942;-89
2022/07/02 03:23:04;;;;;;;1.67;1.20;;;18.30;90.10;;;18.88;55.86;99307.84;4972628;28;114437;-88
2022/07/02 03:25:31;;;;;;;2.07;1.50;;;18.30;90.10;;;18.86;55.73;99308.22;4978215;28;113401;-88
2022/07/02 03:27:57;;;;;;;1.53;1.40;;;18.20;90.10;;;18.86;55.77;99312.97;4981325;28;124108;-89
2022/07/02 03:30:24;;;;;;;1.50;1.30;;;18.30;90.20;;;18.83;55.87;99314.50;4975238;28;124294;-90
2022/07/02 03:32:51;;;;;;;1.90;1.50;;;18.30;90.20;;;18.82;55.88;99309.28;4984310;28;115376;-89
2022/07/02 03:35:18;;;;;;;2.07;1.60;;;18.20;90.20;;;18.81;56.00;99313.25;4976680;28;115675;-89
2022/07/02 03:37:44;;;;;;;2.07;1.53;;;18.30;90.20;;;18.80;55.93;99315.22;4988626;28;124500;-89
2022/07/02 03:40:11;;;;;;;1.70;1.50;;;18.20;90.20;;;18.79;55.87;99313.59;4980260;28;124086;-89
2022/07/02 03:42:37;;;;;;;1.40;1.30;;;18.20;90.30;;;18.80;55.94;99320.00;4978215;28;114728;-89
2022/07/02 03:45:05;;;;;;;1.63;1.50;;;18.20;90.30;;;18.80;56.08;99326.41;4982573;28;114070;-89
2022/07/02 03:47:31;;;;;;;1.63;1.40;;;18.20;90.40;;;18.81;56.01;99321.66;4982231;28;123850;-90
2022/07/02 03:49:58;;;;;;;1.43;1.33;;;18.20;90.40;;;18.81;56.05;99322.47;4979949;28;125325;-90
2022/07/02 03:52:24;;;;;;;1.40;1.20;;;18.20;90.40;;;18.83;56.02;99325.72;4977193;28;114411;-90
2022/07/02 03:54:51;;;;;;;1.97;1.53;;;18.20;90.50;;;18.85;56.13;99326.19;4978349;28;113442;-89
2022/07/02 03:57:17;;;;;;;1.50;1.40;;;18.20;90.50;;;18.88;56.13;99333.06;4981310;28;122366;-90
2022/07/02 03:59:44;;;;;;;2.40;1.63;;;18.30;90.50;;;18.86;56.16;99335.38;4981655;28;124135;-90
2022/07/02 04:02:10;;;;;;;1.70;1.43;;;18.30;90.50;;;18.83;56.04;99322.09;4974910;28;114450;-90
2022/07/02 04:04:37;;;;;;;1.53;1.40;;;18.30;90.50;;;18.85;56.28;99331.78;4976259;28;113986;-91
2022/07/02 04:07:04;;;;;;;1.40;1.30;;;18.30;90.50;;;18.91;56.20;99335.13;4975210;28;123008;-89
2022/07/02 04:09:30;;;;;;;2.90;1.70;;;18.30;90.90;;;19.02;56.19;99336.28;4976881;28;122755;-90
2022/07/02 04:11:57;;;;;;;1.67;1.57;;;18.30;90.70;;;19.07;56.06;99332.41;4976196;28;114863;-90
2022/07/02 04:14:23;;;;;;;1.60;1.40;;;18.40;90.70;;;19.08;56.14;99336.84;4972605;28;113964;-90
2022/07/02 04:16:50;;;;;;;1.53;1.43;;;18.50;90.70;;;19.07;56.06;99341.59;4982035;28;123208;-89
2022/07/02 04:19:16;;;;;;;2.70;1.77;;;18.50;90.60;;;19.04;56.12;99345.13;4976873;28;123835;-89
2022/07/02 04:21:43;;;;;;;1.97;1.40;;;18.50;90.50;;;19.05;56.23;99337.53;4978497;28;115314;-89
2022/07/02 04:24:09;;;;;;;1.70;1.40;;;18.50;90.50;;;19.02;56.03;99335.44;4976826;28;114409;-90
2022/07/02 04:26:36;;;;;;;1.63;1.50;;;18.50;90.40;;;19.00;56.18;99330.22;4977148;28;124247;-90
2022/07/02 04:29:02;;;;;;;1.50;1.40;;;18.50;90.40;;;19.01;56.15;99342.22;4984006;28;122970;-90
2022/07/02 04:31:30;;;;;;;1.50;1.40;;;18.50;90.40;;;19.00;56.05;99335.00;4984549;28;114123;-89
2022/07/02 04:33:56;;;;;;;1.80;1.70;;;18.50;90.40;;;19.01;56.06;99342.22;4977045;28;114176;-91
2022/07/02 04:36:23;;;;;;;1.87;1.37;;;18.50;90.40;;;19.02;56.14;99338.25;4977421;28;124576;-90
2022/07/02 04:38:49;;;;;;;1.70;1.40;;;18.50;90.40;;;19.03;56.12;99337.09;4984734;28;123804;-90
2022/07/02 04:41:16;;;;;;;1.30;1.20;;;18.50;90.40;;;19.05;56.16;99340.34;4983517;28;114253;-90
2022/07/02 04:43:42;;;;;;;1.70;1.50;;;18.50;90.50;;;19.07;56.00;99343.59;4980263;28;114156;-90
2022/07/02 04:46:09;;;;;;;1.57;1.30;;;18.50;90.50;;;19.08;56.03;99348.88;4977810;28;125148;-90
2022/07/02 04:48:35;;;;;;;1.40;1.30;;;18.50;90.50;;;19.10;56.06;99340.91;4981100;28;124441;-91
2022/07/02 04:51:02;;;;;;;1.60;1.50;;;18.60;90.50;;;19.11;56.02;99348.16;4975463;28;114228;-90
2022/07/02 04:53:28;;;;;;;1.60;1.50;;;18.60;90.50;;;19.12;56.05;99337.75;5010481;28;113046;-90
2022/07/02 04:55:55;;;;;;;2.37;1.30;;;18.60;90.50;;;19.14;56.03;99338.22;4988501;28;123941;-89
2022/07/02 04:58:21;;;;;;;2.50;1.60;;;18.60;90.50;;;19.14;55.95;99333.41;4975725;28;123072;-89
2022/07/02 05:00:48;;;;;;;1.57;1.43;;;18.60;90.50;;;19.18;56.08;99336.31;4980412;28;113502;-89
2022/07/02 05:03:14;;;;;;;1.80;1.40;;;18.60;90.60;;;19.22;56.01;99336.44;4983903;28;113919;-90
2022/07/02 05:05:41;;;;;;;1.70;1.60;;;18.60;90.60;;;19.24;55.89;99348.91;4972651;28;123805;-89
2022/07/02 05:08:07;;;;;;;1.67;1.40;;;18.70;90.60;;;19.27;56.05;99345.41;4972794;28;123996;-90
2022/07/02 05:10:34;;;;;;;1.50;1.40;;;18.70;90.60;;;19.31;56.07;99335.09;4991695;28;115307;-90
2022/07/02 05:13:00;;;;;;;1.70;1.27;;;18.70;90.60;;;19.35;56.15;99333.22;4982929;28;115208;-88
2022/07/02 05:15:27;;;;;;;3.17;1.40;;;18.70;90.60;;;19.39;55.90;99342.50;4979012;28;123366;-90
2022/07/02 05:17:53;;;;;;;2.67;1.80;;;18.80;90.70;;;19.43;55.92;99343.44;4981106;28;123227;-89
2022/07/02 05:20:20;;;;;;;2.27;1.60;;;18.80;90.60;;;19.48;56.02;99349.94;4988889;28;114910;-90
2022/07/02 05:22:46;;;;;;;1.30;1.20;;;18.80;90.60;;;19.50;55.76;99336.38;4990364;28;114421;-90
2022/07/02 05:25:13;;;;;;;1.80;1.07;;;18.90;90.60;;;19.54;55.89;99340.13;4970405;28;122864;-89
2022/07/02 05:27:40;;;;;;;1.80;1.10;;;18.90;90.60;;;19.58;55.94;99332.59;4980601;28;123786;-89
2022/07/02 05:30:07;;;;;;;3.40;1.23;;;18.90;90.60;;;19.62;55.61;99341.94;4979204;28;114445;-89
2022/07/02 05:32:33;;;;;;;1.40;1.30;;;19.00;90.60;;;19.68;55.63;99348.13;4969012;28;114162;-89
2022/07/02 05:35:00;;;;;;;1.63;1.33;;;19.00;90.60;;;19.74;55.65;99343.88;4969011;28;123346;-89
2022/07/02 05:37:26;;;;;;;1.83;1.63;;;19.10;90.70;;;19.83;55.90;99344.53;4974488;28;124256;-90
2022/07/02 05:39:53;;;;;;;2.50;1.70;;;19.20;90.80;;;19.91;55.70;99340.72;4982762;28;113428;-87
2022/07/02 05:42:19;;;;;;;1.63;1.50;;;19.20;90.80;;;20.01;55.61;99345.75;4987723;28;114091;-87
2022/07/02 05:44:46;;;;;;;1.60;1.40;;;19.30;90.90;;;20.09;55.31;99352.38;4976339;28;124501;-88
2022/07/02 05:47:12;;;;;;;1.60;1.47;;;19.30;90.90;;;20.14;55.17;99354.91;4981032;28;125187;-90
2022/07/02 05:49:39;;;;;;;2.47;1.40;;;19.40;90.80;;;20.19;55.37;99351.81;4969593;28;114249;-89
2022/07/02 05:52:05;;;;;;;1.90;1.60;;;19.50;90.80;;;20.21;55.29;99348.69;4971012;28;114084;-89
2022/07/02 05:54:32;;;;;;;1.77;1.50;;;19.50;90.70;;;20.21;55.50;99348.69;4969454;28;124164;-88
2022/07/02 05:56:59;;;;;;;2.27;1.63;;;19.50;90.70;;;20.26;55.14;99352.00;4984496;28;123391;-89
2022/07/02 05:59:25;;;;;;;4.53;1.47;;;19.60;90.70;;;20.34;55.28;99346.56;4975617;28;115014;-87
2022/07/02 06:01:52;;;;;;;2.17;1.40;;;19.60;90.70;;;20.41;55.33;99346.72;4969398;28;115425;-87
2022/07/02 06:04:18;;;;;;;2.63;1.50;;;19.70;90.70;;;20.47;54.92;99345.25;4971629;28;124018;-87
2022/07/02 06:09:29;;;;;;;2.20;1.30;;;19.80;90.60;;;20.58;54.94;99351.16;4984382;28;114780;-88
2022/07/02 06:11:56;;;;;;;1.93;1.47;;;19.90;90.60;;;20.63;54.62;99348.06;4972411;28;113824;-87
2022/07/02 06:14:22;;;;;;;1.40;1.20;;;19.90;90.50;;;20.68;54.66;99345.78;4971950;28;124209;-86
2022/07/02 06:16:49;;;;;;;1.40;1.30;;;20.00;90.50;;;20.74;54.75;99347.13;4969388;28;123791;-87
2022/07/02 06:19:15;;;;;;;2.73;1.23;;;20.00;90.40;;;20.79;54.40;99345.22;4974699;28;113897;-88
2022/07/02 06:21:42;;;;;;;3.83;1.30;;;20.10;90.30;;;20.83;54.32;99343.31;4971423;28;114336;-88
2022/07/02 06:24:11;;;;;;;3.83;1.40;;;19.90;90.10;;;20.87;53.90;99347.00;4967910;28;123460;-90
2022/07/02 06:26:37;;;;;;;1.30;1.00;;;20.20;90.10;;;20.92;53.66;99338.28;4983538;28;124628;-88
2022/07/02 06:29:04;;;;;;;1.97;1.20;;;20.20;90.10;;;21.01;53.57;99341.69;4966552;28;113953;-88
2022/07/02 06:31:31;;;;;;;2.27;1.20;;;20.30;90.00;;;21.07;53.64;99336.59;4980999;28;113187;-89
2022/07/02 06:33:58;;;;;;;1.00;0.90;;;20.30;89.80;;;21.17;53.12;99333.16;4980346;28;123882;-88
2022/07/02 06:36:25;;;;;;;2.73;1.00;;;20.50;89.90;;;21.26;52.88;99336.56;4983101;28;123775;-89
2022/07/02 06:38:52;;;;;;;1.43;1.20;;;20.50;89.60;;;21.33;52.95;99335.88;4984317;28;114338;-88
2022/07/02 06:44:05;;;;;;;2.03;1.30;;;20.70;89.20;;;21.46;52.65;99323.31;4983060;28;124936;-88
2022/07/02 06:46:35;;;;;;;1.27;1.13;;;20.80;89.30;;;21.56;52.82;99333.16;4976400;28;123797;-88
2022/07/02 06:49:02;;;;;;;2.30;1.17;;;20.80;88.90;;;21.62;52.59;99332.47;4974991;28;116086;-87
2022/07/02 06:51:28;;;;;;;1.10;1.00;;;20.90;88.80;;;21.71;52.16;99334.22;4969394;28;115079;-87
2022/07/02 06:54:00;;;;;;;2.13;1.00;;;21.00;88.70;;;21.79;52.19;99324.75;4973969;28;123979;-87
2022/07/02 06:56:36;;;;;;;1.60;1.03;;;21.00;88.60;;;21.87;51.95;99320.88;4970368;28;123001;-87
2022/07/02 06:59:04;;;;;;;1.20;1.07;;;21.10;88.10;;;21.91;51.54;99326.53;4971626;28;114338;-87
2022/07/02 07:01:31;;;;;;;1.17;1.00;;;21.20;88.00;;;21.99;51.63;99329.09;4972909;28;114672;-87
2022/07/02 07:03:57;;;;;;;2.70;1.03;;;21.30;87.90;;;22.06;51.23;99326.41;4974666;28;124439;-87
2022/07/02 07:06:25;;;;;;;1.00;0.90;;;21.30;87.50;;;22.12;51.05;99332.53;4983154;28;124003;-86
2022/07/02 07:08:54;;;;;;;0.97;0.87;;;21.40;87.00;;;22.17;51.00;99322.97;4983356;28;114413;-88
2022/07/02 07:11:24;;;;;;;1.83;1.00;;;21.40;86.80;;;22.24;50.63;99323.09;5002524;28;113401;-86
2022/07/02 07:13:53;;;;;;;1.00;0.90;;;21.50;86.50;;;22.34;50.22;99330.09;4976700;28;123673;-87
2022/07/02 07:16:20;;;;;;;1.20;1.10;;;21.60;86.10;;;22.40;50.14;99332.19;4983212;28;123614;-87
2022/07/02 07:18:49;;;;;;;1.23;1.00;;;21.70;85.90;;;22.48;49.49;99333.09;4984598;28;113391;-87
2022/07/02 07:21:16;;;;;;;3.03;1.37;;;21.70;85.10;;;22.54;48.52;99330.78;4979968;28;113953;-86
2022/07/02 07:23:42;;;;;;;2.27;1.10;;;21.80;84.20;;;22.60;48.54;99334.91;4971960;28;124118;-87
2022/07/02 07:26:09;;;;;;;1.47;1.00;;;21.80;84.10;;;22.64;48.00;99322.47;4975471;28;123695;-86
2022/07/02 07:28:36;;;;;;;1.47;1.00;;;21.90;83.40;;;22.68;47.58;99323.34;4971849;28;114223;-87
2022/07/02 07:31:02;;;;;;;1.70;1.03;;;21.90;82.50;;;22.70;47.38;99328.59;4976253;28;113185;-86
2022/07/02 07:33:30;;;;;;;1.10;1.00;;;22.00;82.00;;;22.74;47.34;99326.66;4972372;28;124142;-86
2022/07/02 07:35:57;;;;;;;1.10;0.93;;;22.00;81.90;;;22.81;47.13;99323.09;4977998;28;123843;-86
2022/07/02 07:38:24;;;;;;;1.00;0.90;;;22.10;81.50;;;22.86;46.74;99319.94;4978538;28;115281;-86
2022/07/02 07:40:50;;;;;;;1.00;0.90;;;22.10;81.30;;;22.91;46.78;99317.59;4975326;28;113946;-86
2022/07/02 07:43:17;;;;;;;1.37;0.90;;;22.20;81.10;;;22.98;46.27;99321.75;4990976;28;124243;-86
2022/07/02 07:45:43;;;;;;;1.20;0.90;;;22.20;80.30;;;23.02;46.12;99314.94;4961799;28;122899;-85
2022/07/02 07:48:10;;;;;;;1.50;1.20;;;22.30;80.30;;;23.08;46.07;99321.91;4975745;28;114526;-86
2022/07/02 07:50:36;;;;;;;1.50;1.10;;;22.40;80.00;;;23.14;45.75;99313.91;4983595;28;112837;-86
2022/07/02 07:53:03;;;;;;;1.60;0.90;;;22.40;79.80;;;23.21;45.41;99308.34;4981096;28;124113;-87
2022/07/02 07:55:29;;;;;;;1.10;0.90;;;22.50;79.50;;;23.28;45.00;99314.06;4980185;28;123700;-89
2022/07/02 07:57:56;;;;;;;2.17;1.20;;;22.60;79.00;;;23.30;44.27;99310.88;4985708;28;114857;-85
2022/07/02 08:00:23;;;;;;;1.83;0.90;;;22.60;78.00;;;23.31;44.57;99307.66;4985431;28;114537;-86
2022/07/02 08:02:50;;;;;;;1.10;1.00;;;22.60;77.80;;;23.34;44.12;99311.72;4980762;28;124182;-85
2022/07/02 08:05:16;;;;;;;1.17;1.07;;;22.60;77.40;;;23.34;43.81;99311.72;4984011;28;124643;-85
2022/07/02 08:07:43;;;;;;;1.10;0.93;;;22.70;76.80;;;23.35;44.07;99304.88;4983603;28;115089;-86
2022/07/02 08:10:10;;;;;;;1.03;0.93;;;22.70;76.60;;;23.40;43.87;99298.06;4974259;28;114002;-86
2022/07/02 08:12:39;;;;;;;5.50;1.27;;;22.70;76.50;;;23.46;43.66;99291.72;4975530;28;124127;-86
2022/07/02 08:15:06;;;;;;;2.40;1.40;;;22.80;76.50;;;23.50;43.03;99288.91;4980671;28;123891;-86
2022/07/02 08:17:34;;;;;;;4.73;1.30;;;22.80;75.10;;;23.52;43.38;99294.97;4960733;28;113354;-86
2022/07/02 08:20:02;;;;;;;2.77;1.30;;;22.90;75.60;;;23.59;43.51;99284.59;4973800;28;113528;-85
2022/07/02 08:22:28;;;;;;;2.60;1.00;;;23.10;75.70;;;23.66;43.25;99283.81;4990097;28;123756;-85
2022/07/02 08:24:55;;;;;;;1.67;1.10;;;23.00;75.00;;;23.68;42.80;99289.91;4972210;28;124018;-85
2022/07/02 08:27:22;;;;;;;1.33;1.07;;;23.00;74.60;;;23.70;42.82;99281.84;4971520;28;114392;-84
2022/07/02 08:29:48;;;;;;;1.00;0.90;;;23.00;74.30;;;23.76;42.94;99276.69;4974309;28;114367;-84
2022/07/02 08:32:15;;;;;;;1.00;0.90;;;23.10;74.40;;;23.82;42.77;99277.94;4972204;28;124484;-83
2022/07/02 08:34:41;;;;;;;1.20;0.90;;;23.20;74.50;;;23.89;42.80;99280.84;4975557;28;123185;-84
2022/07/02 08:37:08;;;;;;;1.60;1.00;;;23.20;74.30;;;23.94;42.40;99283.31;4975118;28;114784;-86
2022/07/02 08:39:35;;;;;;;1.37;0.97;;;23.30;73.80;;;23.95;42.26;99276.44;4975277;28;114001;-81
2022/07/02 08:42:02;;;;;;;1.83;0.93;;;23.30;73.60;;;24.00;42.60;99273.28;4979420;28;124289;-81
2022/07/02 08:44:32;;;;;;;1.13;1.03;;;23.30;74.00;;;24.05;42.48;99272.09;4984920;28;123503;-81
2022/07/02 08:47:07;;;;;;;1.20;1.00;;;23.40;73.70;;;24.12;42.46;99268.50;4989206;28;113897;-81
2022/07/02 08:49:34;;;;;;;1.20;0.90;;;23.50;73.70;;;24.17;41.79;99268.94;4985326;28;114141;-81
2022/07/02 08:52:06;;;;;;;1.10;1.00;;;23.50;72.90;;;24.17;41.76;99260.47;4973475;28;124612;-82
2022/07/02 08:54:33;;;;;;;1.10;0.90;;;23.50;72.50;;;24.18;41.41;99256.47;4980490;28;124374;-82
2022/07/02 08:57:47;;;;;;;1.13;1.00;;;23.60;72.10;;;24.16;41.47;99250.41;4990758;28;114382;-83
2022/07/02 09:00:18;;;;;;;1.30;1.00;;;23.60;71.50;;;24.17;41.27;99246.34;4983972;28;114646;-88
2022/07/02 09:02:46;;;;;;;1.20;0.97;;;23.60;71.40;;;24.18;40.77;99242.34;4974612;28;123728;-88
2022/07/02 09:05:13;;;;;;;1.53;1.00;;;23.60;70.30;;;24.18;41.03;99252.81;4977482;28;123879;-89
2022/07/02 09:07:41;;;;;;;1.40;1.20;;;23.60;70.80;;;24.20;40.57;99244.75;4980862;28;114351;-88
2022/07/02 09:10:10;;;;;;;1.20;0.90;;;23.60;70.20;;;24.24;40.59;99243.59;4974897;28;113034;-88
2022/07/02 09:12:38;;;;;;;1.50;0.90;;;23.70;70.20;;;24.30;40.42;99244.03;4985198;28;124115;-88
2022/07/02 09:15:06;;;;;;;1.00;0.90;;;23.70;69.70;;;24.31;39.90;99233.53;4973547;28;123571;-89
2022/07/02 09:17:33;;;;;;;2.73;1.10;;;23.70;69.10;;;24.33;39.94;99231.13;4979083;28;115235;-88
2022/07/02 09:19:59;;;;;;;2.40;1.10;;;23.70;68.60;;;24.35;39.73;99225.91;4976936;28;115343;-91
2022/07/02 09:22:35;;;;;;;1.93;1.00;;;23.70;68.40;;;24.37;39.71;99217.84;4990774;28;123188;-91
2022/07/02 09:25:24;;;;;;;1.10;1.00;;;23.80;68.10;;;24.36;39.82;99216.22;4975644;28;123797;-87
2022/07/02 09:28:04;;;;;;;1.87;1.30;;;23.80;68.00;;;24.38;39.32;99214.63;4977798;28;114435;-89
2022/07/02 09:30:38;;;;;;;2.07;1.00;;;23.80;67.60;;;24.39;39.52;99212.59;4981773;28;114781;-89
2022/07/02 09:33:28;;;;;;;1.70;1.10;;;23.80;67.40;;;24.38;39.51;99217.44;4975404;28;123208;-88
2022/07/02 09:35:56;;;;;;;2.60;1.20;;;23.90;67.40;;;24.41;38.90;99232.78;4991609;28;123695;-83
2022/07/02 09:38:22;;;;;;;1.43;1.17;;;23.90;66.90;;;24.47;39.34;99231.22;4978498;28;113474;-87
2022/07/02 09:40:59;;;;;;;1.10;1.00;;;23.90;67.20;;;24.56;38.95;99219.59;4981120;28;114993;-88
2022/07/02 09:43:32;;;;;;;2.70;1.07;;;24.00;66.70;;;24.61;38.06;99225.66;4981264;28;123516;-87
2022/07/02 09:46:00;;;;;;;1.20;1.10;;;24.00;65.10;;;24.65;37.83;99229.31;4962442;28;122471;-89
2022/07/02 09:48:28;;;;;;;1.00;0.90;;;24.00;64.40;;;24.69;37.31;99230.13;4982634;28;112317;-88
2022/07/02 09:50:55;;;;;;;1.40;1.20;;;24.10;63.80;;;24.74;36.56;99222.47;4982075;28;114055;-87
2022/07/02 09:53:21;;;;;;;1.00;0.80;;;24.20;62.40;;;24.77;37.08;99221.66;4982869;28;124050;-87
2022/07/02 09:55:50;;;;;;;1.60;1.20;;;24.20;62.60;;;24.81;37.09;99228.16;4968777;28;123530;-88
2022/07/02 09:58:28;;;;;;;2.80;1.10;;;24.30;62.70;;;24.87;36.77;99220.91;4983774;28;113820;-83
2022/07/02 10:01:01;;;;;;;4.17;1.00;;;24.30;62.60;;;24.94;36.03;99226.59;4984975;28;113135;-85
2022/07/02 10:03:28;;;;;;;3.47;1.10;;;24.40;61.10;;;24.98;35.49;99227.41;4983309;28;123702;-83
2022/07/02 10:05:54;;;;;;;1.53;1.00;;;24.40;60.40;;;24.98;35.45;99230.22;4964214;28;122870;-85
2022/07/02 10:08:22;;;;;;;1.57;0.93;;;24.40;59.80;;;25.00;36.00;99221.34;4993885;28;114351;-86
2022/07/02 10:10:49;;;;;;;1.57;1.30;;;24.40;60.60;;;25.03;35.07;99224.19;4978418;28;114984;-85
2022/07/02 10:13:18;;;;;;;1.40;1.07;;;24.50;59.60;;;25.03;35.49;99212.88;4976492;28;123914;-83
2022/07/02 10:15:53;;;;;;;2.80;1.20;;;24.50;59.70;;;25.06;35.29;99214.09;4981943;28;123894;-81
2022/07/02 10:18:20;;;;;;;2.30;1.33;;;24.90;60.20;;;25.07;35.35;99208.06;4979815;28;113989;-84
2022/07/02 10:20:48;;;;;;;10.93;2.30;;;24.50;59.30;;;25.12;35.73;99202.00;4981553;28;113443;-82